sensor_id;sensor_type;location;lat;lon;timestamp;pressure;altitude;pressure_sealevel;temperature;humidity
58769;BME280;44536;47.474;19.056;2023-05-29T00:01:13;100428.66;;;15.71;57.34
58769;BME280;44536;47.474;19.056;2023-05-29T00:04:20;100421.16;;;15.57;58.17
58769;BME280;44536;47.474;19.056;2023-05-29T00:07:23;100425.38;;;15.50;57.53
58769;BME280;44536;47.474;19.056;2023-05-29T00:10:25;100418.50;;;15.47;59.09
58769;BME280;44536;47.474;19.056;2023-05-29T00:13:27;100429.75;;;15.41;57.93
58769;BME280;44536;47.474;19.056;2023-05-29T00:16:30;100437.63;;;15.43;58.95
58769;BME280;44536;47.474;19.056;2023-05-29T00:19:32;100442.12;;;15.42;59.54
58769;BME280;44536;47.474;19.056;2023-05-29T00:22:35;100432.28;;;15.43;60.89
58769;BME280;44536;47.474;19.056;2023-05-29T00:25:39;100452.12;;;15.40;62.27
58769;BME280;44536;47.474;19.056;2023-05-29T00:28:42;100456.50;;;15.32;62.76
58769;BME280;44536;47.474;19.056;2023-05-29T00:31:44;100454.28;;;15.27;63.44
58769;BME280;44536;47.474;19.056;2023-05-29T00:34:47;100448.94;;;15.27;63.08
58769;BME280;44536;47.474;19.056;2023-05-29T00:37:49;100450.91;;;15.25;63.19
58769;BME280;44536;47.474;19.056;2023-05-29T00:40:51;100448.06;;;15.36;62.34
58769;BME280;44536;47.474;19.056;2023-05-29T00:43:53;100444.69;;;15.34;62.49
58769;BME280;44536;47.474;19.056;2023-05-29T00:46:55;100440.47;;;15.32;62.13
58769;BME280;44536;47.474;19.056;2023-05-29T00:49:58;100436.97;;;15.31;63.13
58769;BME280;44536;47.474;19.056;2023-05-29T00:53:00;100436.28;;;15.19;63.65
58769;BME280;44536;47.474;19.056;2023-05-29T00:56:03;100428.00;;;15.13;63.13
58769;BME280;44536;47.474;19.056;2023-05-29T00:59:06;100431.94;;;15.09;63.41
58769;BME280;44536;47.474;19.056;2023-05-29T01:02:08;100429.87;;;15.03;62.99
58769;BME280;44536;47.474;19.056;2023-05-29T01:05:11;100426.38;;;14.93;62.46
58769;BME280;44536;47.474;19.056;2023-05-29T01:08:13;100424.56;;;14.93;61.76
58769;BME280;44536;47.474;19.056;2023-05-29T01:11:36;100425.81;;;14.99;61.25
58769;BME280;44536;47.474;19.056;2023-05-29T01:21:06;100429.06;;;14.83;64.05
58769;BME280;44536;47.474;19.056;2023-05-29T01:24:17;100428.34;;;14.81;62.95
58769;BME280;44536;47.474;19.056;2023-05-29T01:27:25;100422.75;;;14.74;62.70
58769;BME280;44536;47.474;19.056;2023-05-29T01:30:31;100419.50;;;14.71;63.15
58769;BME280;44536;47.474;19.056;2023-05-29T01:33:34;100412.50;;;14.70;62.61
58769;BME280;44536;47.474;19.056;2023-05-29T01:36:40;100417.97;;;14.68;62.95
58769;BME280;44536;47.474;19.056;2023-05-29T01:39:43;100412.50;;;14.70;63.05
58769;BME280;44536;47.474;19.056;2023-05-29T01:42:45;100411.22;;;14.64;63.82
58769;BME280;44536;47.474;19.056;2023-05-29T01:45:48;100414.75;;;14.65;64.33
58769;BME280;44536;47.474;19.056;2023-05-29T01:48:50;100400.13;;;14.59;64.48
58769;BME280;44536;47.474;19.056;2023-05-29T01:51:53;100410.94;;;14.57;64.28
58769;BME280;44536;47.474;19.056;2023-05-29T01:54:55;100409.53;;;14.63;64.41
58769;BME280;44536;47.474;19.056;2023-05-29T01:57:57;100403.78;;;14.58;64.73
58769;BME280;44536;47.474;19.056;2023-05-29T02:01:03;100414.78;;;14.55;64.61
58769;BME280;44536;47.474;19.056;2023-05-29T02:04:06;100402.81;;;14.59;64.71
58769;BME280;44536;47.474;19.056;2023-05-29T02:07:08;100407.16;;;14.60;64.51
58769;BME280;44536;47.474;19.056;2023-05-29T02:10:10;100403.78;;;14.68;64.67
58769;BME280;44536;47.474;19.056;2023-05-29T02:13:12;100401.69;;;14.62;65.10
58769;BME280;44536;47.474;19.056;2023-05-29T02:16:15;100401.81;;;14.60;65.03
58769;BME280;44536;47.474;19.056;2023-05-29T02:19:19;100396.06;;;14.65;64.71
58769;BME280;44536;47.474;19.056;2023-05-29T02:22:21;100388.34;;;14.62;64.88
58769;BME280;44536;47.474;19.056;2023-05-29T02:25:24;100393.94;;;14.58;65.53
58769;BME280;44536;47.474;19.056;2023-05-29T02:28:26;100396.75;;;14.67;65.63
58769;BME280;44536;47.474;19.056;2023-05-29T02:31:29;100392.25;;;14.67;65.72
58769;BME280;44536;47.474;19.056;2023-05-29T02:34:31;100394.22;;;14.65;66.53
58769;BME280;44536;47.474;19.056;2023-05-29T02:37:33;100397.19;;;14.62;68.22
58769;BME280;44536;47.474;19.056;2023-05-29T02:40:35;100397.59;;;14.57;68.22
58769;BME280;44536;47.474;19.056;2023-05-29T02:43:38;100391.03;;;14.52;68.48
58769;BME280;44536;47.474;19.056;2023-05-29T02:46:40;100398.34;;;14.50;68.45
58769;BME280;44536;47.474;19.056;2023-05-29T02:49:43;100380.34;;;14.42;68.75
58769;BME280;44536;47.474;19.056;2023-05-29T02:52:45;100384.84;;;14.42;68.93
58769;BME280;44536;47.474;19.056;2023-05-29T02:55:48;100386.34;;;14.35;69.58
58769;BME280;44536;47.474;19.056;2023-05-29T02:58:50;100380.47;;;14.31;70.22
58769;BME280;44536;47.474;19.056;2023-05-29T03:01:52;100382.69;;;14.26;71.30
58769;BME280;44536;47.474;19.056;2023-05-29T03:04:55;100382.28;;;14.21;71.83
58769;BME280;44536;47.474;19.056;2023-05-29T03:07:57;100375.66;;;14.15;72.42
58769;BME280;44536;47.474;19.056;2023-05-29T03:10:59;100379.31;;;14.14;72.90
58769;BME280;44536;47.474;19.056;2023-05-29T03:14:01;100383.53;;;14.17;72.54
58769;BME280;44536;47.474;19.056;2023-05-29T03:17:04;100376.50;;;14.16;72.99
58769;BME280;44536;47.474;19.056;2023-05-29T03:20:07;100388.31;;;14.23;73.24
58769;BME280;44536;47.474;19.056;2023-05-29T03:23:09;100387.47;;;14.22;73.55
58769;BME280;44536;47.474;19.056;2023-05-29T03:26:12;100386.06;;;14.28;73.81
58769;BME280;44536;47.474;19.056;2023-05-29T03:29:15;100393.94;;;14.30;73.68
58769;BME280;44536;47.474;19.056;2023-05-29T03:32:18;100386.63;;;14.32;73.64
58769;BME280;44536;47.474;19.056;2023-05-29T03:35:20;100401.25;;;14.37;73.23
58769;BME280;44536;47.474;19.056;2023-05-29T03:38:23;100400.84;;;14.42;73.05
58769;BME280;44536;47.474;19.056;2023-05-29T03:41:27;100410.00;;;14.49;72.71
58769;BME280;44536;47.474;19.056;2023-05-29T03:44:29;100415.88;;;14.52;72.31
58769;BME280;44536;47.474;19.056;2023-05-29T03:47:32;100414.78;;;14.55;72.22
58769;BME280;44536;47.474;19.056;2023-05-29T03:50:34;100420.09;;;14.55;72.50
58769;BME280;44536;47.474;19.056;2023-05-29T03:53:37;100423.87;;;14.62;72.54
58769;BME280;44536;47.474;19.056;2023-05-29T03:56:39;100420.50;;;14.70;72.14
58769;BME280;44536;47.474;19.056;2023-05-29T03:59:42;100421.91;;;14.74;71.99
58769;BME280;44536;47.474;19.056;2023-05-29T04:02:44;100425.81;;;14.79;71.79
58769;BME280;44536;47.474;19.056;2023-05-29T04:05:47;100427.78;;;14.87;71.63
58769;BME280;44536;47.474;19.056;2023-05-29T04:08:49;100430.88;;;14.92;71.20
58769;BME280;44536;47.474;19.056;2023-05-29T04:11:52;100423.28;;;14.87;70.79
58769;BME280;44536;47.474;19.056;2023-05-29T04:14:54;100423.84;;;14.91;70.33
58769;BME280;44536;47.474;19.056;2023-05-29T04:17:57;100420.34;;;14.90;69.93
58769;BME280;44536;47.474;19.056;2023-05-29T04:20:59;100427.09;;;14.95;69.69
58769;BME280;44536;47.474;19.056;2023-05-29T04:24:02;100428.34;;;15.00;69.11
58769;BME280;44536;47.474;19.056;2023-05-29T04:27:05;100435.88;;;15.14;68.77
58769;BME280;44536;47.474;19.056;2023-05-29T04:30:08;100430.94;;;15.19;68.64
58769;BME280;44536;47.474;19.056;2023-05-29T04:33:10;100429.81;;;15.22;68.80
58769;BME280;44536;47.474;19.056;2023-05-29T04:36:16;100434.59;;;15.28;68.86
58769;BME280;44536;47.474;19.056;2023-05-29T04:39:19;100437.09;;;15.39;68.59
58769;BME280;44536;47.474;19.056;2023-05-29T04:42:24;100438.88;;;15.48;68.56
58769;BME280;44536;47.474;19.056;2023-05-29T04:45:27;100438.28;;;15.64;67.86
58769;BME280;44536;47.474;19.056;2023-05-29T04:48:30;100434.28;;;15.78;67.35
58769;BME280;44536;47.474;19.056;2023-05-29T04:51:32;100430.41;;;15.90;66.97
58769;BME280;44536;47.474;19.056;2023-05-29T04:54:35;100431.75;;;16.04;66.91
58769;BME280;44536;47.474;19.056;2023-05-29T04:57:37;100440.22;;;16.17;66.84
58769;BME280;44536;47.474;19.056;2023-05-29T05:00:40;100436.19;;;16.31;65.52
58769;BME280;44536;47.474;19.056;2023-05-29T05:03:43;100444.31;;;16.39;66.16
58769;BME280;44536;47.474;19.056;2023-05-29T05:06:47;100444.47;;;16.55;66.00
58769;BME280;44536;47.474;19.056;2023-05-29T05:09:49;100447.84;;;16.75;64.42
58769;BME280;44536;47.474;19.056;2023-05-29T05:12:52;100440.13;;;16.90;63.97
58769;BME280;44536;47.474;19.056;2023-05-29T05:15:54;100444.81;;;17.13;63.75
58769;BME280;44536;47.474;19.056;2023-05-29T05:18:57;100450.00;;;17.41;61.98
58769;BME280;44536;47.474;19.056;2023-05-29T05:21:59;100444.59;;;17.59;61.59
58769;BME280;44536;47.474;19.056;2023-05-29T05:25:01;100444.53;;;17.76;62.06
58769;BME280;44536;47.474;19.056;2023-05-29T05:28:07;100448.13;;;17.93;61.00
58769;BME280;44536;47.474;19.056;2023-05-29T05:31:10;100448.84;;;18.11;59.58
58769;BME280;44536;47.474;19.056;2023-05-29T05:34:13;100455.13;;;18.44;58.60
58769;BME280;44536;47.474;19.056;2023-05-29T05:37:17;100450.81;;;18.76;57.51
58769;BME280;44536;47.474;19.056;2023-05-29T05:40:19;100449.16;;;19.07;55.16
58769;BME280;44536;47.474;19.056;2023-05-29T05:43:23;100447.06;;;19.42;54.04
58769;BME280;44536;47.474;19.056;2023-05-29T05:46:25;100452.91;;;20.09;53.10
58769;BME280;44536;47.474;19.056;2023-05-29T05:49:29;100456.69;;;20.99;48.53
58769;BME280;44536;47.474;19.056;2023-05-29T05:52:31;100449.72;;;21.72;47.54
58769;BME280;44536;47.474;19.056;2023-05-29T05:55:35;100455.41;;;22.06;46.21
58769;BME280;44536;47.474;19.056;2023-05-29T05:58:38;100454.97;;;22.60;45.10
58769;BME280;44536;47.474;19.056;2023-05-29T06:01:41;100462.94;;;23.11;43.41
58769;BME280;44536;47.474;19.056;2023-05-29T06:04:43;100457.44;;;23.95;41.69
58769;BME280;44536;47.474;19.056;2023-05-29T06:07:45;100459.44;;;24.21;41.14
58769;BME280;44536;47.474;19.056;2023-05-29T06:10:48;100456.28;;;24.78;40.28
58769;BME280;44536;47.474;19.056;2023-05-29T06:13:51;100469.03;;;24.97;38.36
58769;BME280;44536;47.474;19.056;2023-05-29T06:16:55;100466.12;;;25.25;38.64
58769;BME280;44536;47.474;19.056;2023-05-29T06:19:59;100466.22;;;25.96;37.68
58769;BME280;44536;47.474;19.056;2023-05-29T06:23:03;100472.06;;;26.51;36.84
58769;BME280;44536;47.474;19.056;2023-05-29T06:26:05;100471.13;;;26.19;36.20
58769;BME280;44536;47.474;19.056;2023-05-29T06:29:08;100478.00;;;26.35;35.38
58769;BME280;44536;47.474;19.056;2023-05-29T06:32:10;100478.31;;;26.00;36.99
58769;BME280;44536;47.474;19.056;2023-05-29T06:35:12;100475.53;;;25.16;38.18
58769;BME280;44536;47.474;19.056;2023-05-29T06:38:14;100484.03;;;26.30;36.11
58769;BME280;44536;47.474;19.056;2023-05-29T06:41:17;100482.66;;;26.91;35.13
58769;BME280;44536;47.474;19.056;2023-05-29T06:44:19;100488.91;;;27.48;33.57
58769;BME280;44536;47.474;19.056;2023-05-29T06:47:22;100486.62;;;27.69;33.76
58769;BME280;44536;47.474;19.056;2023-05-29T06:50:24;100484.00;;;27.56;34.21
58769;BME280;44536;47.474;19.056;2023-05-29T06:53:27;100480.94;;;28.08;33.38
58769;BME280;44536;47.474;19.056;2023-05-29T06:56:29;100487.53;;;28.66;32.11
58769;BME280;44536;47.474;19.056;2023-05-29T06:59:32;100482.78;;;27.77;33.70
58769;BME280;44536;47.474;19.056;2023-05-29T07:02:35;100484.03;;;28.48;32.84
58769;BME280;44536;47.474;19.056;2023-05-29T07:05:37;100488.91;;;28.27;33.19
58769;BME280;44536;47.474;19.056;2023-05-29T07:08:39;100488.22;;;28.62;33.21
58769;BME280;44536;47.474;19.056;2023-05-29T07:11:41;100478.28;;;28.38;32.37
58769;BME280;44536;47.474;19.056;2023-05-29T07:14:43;100494.00;;;28.06;33.29
58769;BME280;44536;47.474;19.056;2023-05-29T07:17:46;100490.69;;;28.15;33.50
58769;BME280;44536;47.474;19.056;2023-05-29T07:20:49;100483.38;;;27.36;34.90
58769;BME280;44536;47.474;19.056;2023-05-29T07:23:51;100492.41;;;26.29;37.34
58769;BME280;44536;47.474;19.056;2023-05-29T07:26:53;100495.53;;;24.95;39.32
58769;BME280;44536;47.474;19.056;2023-05-29T07:29:57;100495.78;;;25.20;40.61
58769;BME280;44536;47.474;19.056;2023-05-29T07:33:00;100508.50;;;25.13;40.29
58769;BME280;44536;47.474;19.056;2023-05-29T07:36:03;100504.50;;;24.89;40.33
58769;BME280;44536;47.474;19.056;2023-05-29T07:39:05;100506.19;;;25.17;40.44
58769;BME280;44536;47.474;19.056;2023-05-29T07:42:09;100517.50;;;24.39;41.15
58769;BME280;44536;47.474;19.056;2023-05-29T07:45:12;100522.78;;;24.61;42.50
58769;BME280;44536;47.474;19.056;2023-05-29T07:48:14;100523.34;;;23.39;44.29
58769;BME280;44536;47.474;19.056;2023-05-29T07:51:17;100535.66;;;23.70;45.27
58769;BME280;44536;47.474;19.056;2023-05-29T07:54:20;100538.75;;;23.45;44.17
58769;BME280;44536;47.474;19.056;2023-05-29T07:57:23;100531.81;;;23.86;43.43
58769;BME280;44536;47.474;19.056;2023-05-29T08:00:27;100525.34;;;23.87;43.78
58769;BME280;44536;47.474;19.056;2023-05-29T08:03:30;100529.59;;;24.37;43.32
58769;BME280;44536;47.474;19.056;2023-05-29T08:06:35;100529.16;;;25.54;41.04
58769;BME280;44536;47.474;19.056;2023-05-29T08:09:38;100525.28;;;27.03;37.91
58769;BME280;44536;47.474;19.056;2023-05-29T08:12:41;100520.59;;;26.48;38.82
58769;BME280;44536;47.474;19.056;2023-05-29T08:15:43;100516.97;;;26.02;39.82
58769;BME280;44536;47.474;19.056;2023-05-29T08:18:45;100516.56;;;24.73;41.72
58769;BME280;44536;47.474;19.056;2023-05-29T08:21:48;100511.87;;;24.41;42.76
58769;BME280;44536;47.474;19.056;2023-05-29T08:24:50;100517.16;;;24.15;43.24
58769;BME280;44536;47.474;19.056;2023-05-29T08:27:52;100519.16;;;24.34;42.37
58769;BME280;44536;47.474;19.056;2023-05-29T08:30:54;100516.25;;;24.35;42.23
58769;BME280;44536;47.474;19.056;2023-05-29T08:33:57;100506.56;;;24.81;42.40
58769;BME280;44536;47.474;19.056;2023-05-29T08:36:59;100514.59;;;24.48;42.59
58769;BME280;44536;47.474;19.056;2023-05-29T08:40:02;100509.91;;;24.83;41.40
58769;BME280;44536;47.474;19.056;2023-05-29T08:43:11;100506.22;;;25.23;41.92
58769;BME280;44536;47.474;19.056;2023-05-29T08:46:14;100507.00;;;25.63;40.21
58769;BME280;44536;47.474;19.056;2023-05-29T08:49:16;100506.62;;;25.20;40.32
58769;BME280;44536;47.474;19.056;2023-05-29T08:52:22;100499.94;;;25.69;39.25
58769;BME280;44536;47.474;19.056;2023-05-29T08:55:24;100498.53;;;26.62;38.44
58769;BME280;44536;47.474;19.056;2023-05-29T08:58:27;100500.53;;;27.12;36.66
58769;BME280;44536;47.474;19.056;2023-05-29T09:01:29;100507.53;;;27.94;35.46
58769;BME280;44536;47.474;19.056;2023-05-29T09:04:33;100505.53;;;28.19;35.26
58769;BME280;44536;47.474;19.056;2023-05-29T09:07:36;100513.34;;;28.82;33.91
58769;BME280;44536;47.474;19.056;2023-05-29T09:10:40;100498.84;;;29.23;33.48
58769;BME280;44536;47.474;19.056;2023-05-29T09:13:43;100511.63;;;28.21;34.33
58769;BME280;44536;47.474;19.056;2023-05-29T09:16:45;100509.62;;;28.77;33.09
58769;BME280;44536;47.474;19.056;2023-05-29T09:19:47;100506.81;;;30.58;30.94
58769;BME280;44536;47.474;19.056;2023-05-29T09:23:00;100512.31;;;31.54;29.79
58769;BME280;44536;47.474;19.056;2023-05-29T09:26:08;100506.53;;;32.11;29.33
58769;BME280;44536;47.474;19.056;2023-05-29T09:29:10;100511.13;;;30.71;30.07
58769;BME280;44536;47.474;19.056;2023-05-29T09:32:17;100510.12;;;28.25;33.49
58769;BME280;44536;47.474;19.056;2023-05-29T09:35:20;100516.19;;;27.66;34.91
58769;BME280;44536;47.474;19.056;2023-05-29T09:38:22;100510.69;;;27.23;36.20
58769;BME280;44536;47.474;19.056;2023-05-29T09:41:44;100516.16;;;27.91;34.68
58769;BME280;44536;47.474;19.056;2023-05-29T09:44:50;100512.91;;;27.82;35.13
58769;BME280;44536;47.474;19.056;2023-05-29T09:47:55;100512.22;;;26.87;36.69
58769;BME280;44536;47.474;19.056;2023-05-29T09:50:57;100511.63;;;26.79;37.26
58769;BME280;44536;47.474;19.056;2023-05-29T09:54:12;100512.25;;;26.43;38.28
58769;BME280;44536;47.474;19.056;2023-05-29T09:57:14;100520.66;;;26.21;37.90
58769;BME280;44536;47.474;19.056;2023-05-29T10:00:18;100515.37;;;25.75;39.93
58769;BME280;44536;47.474;19.056;2023-05-29T10:03:21;100519.41;;;26.24;40.09
58769;BME280;44536;47.474;19.056;2023-05-29T10:06:24;100527.47;;;25.99;38.93
58769;BME280;44536;47.474;19.056;2023-05-29T10:09:26;100532.53;;;25.43;39.96
58769;BME280;44536;47.474;19.056;2023-05-29T10:12:29;100531.63;;;24.96;41.09
58769;BME280;44536;47.474;19.056;2023-05-29T10:15:33;100533.66;;;24.67;42.02
58769;BME280;44536;47.474;19.056;2023-05-29T10:18:37;100537.94;;;25.36;41.87
58769;BME280;44536;47.474;19.056;2023-05-29T10:21:40;100534.41;;;25.68;41.50
58769;BME280;44536;47.474;19.056;2023-05-29T10:24:43;100534.59;;;25.80;41.44
58769;BME280;44536;47.474;19.056;2023-05-29T10:27:48;100534.59;;;25.60;41.95
58769;BME280;44536;47.474;19.056;2023-05-29T10:30:52;100528.31;;;25.60;42.42
58769;BME280;44536;47.474;19.056;2023-05-29T10:34:00;100526.03;;;26.48;40.80
58769;BME280;44536;47.474;19.056;2023-05-29T10:37:29;100528.91;;;28.82;36.49
58769;BME280;44536;47.474;19.056;2023-05-29T10:40:27;100526.22;;;27.47;38.71
58769;BME280;44536;47.474;19.056;2023-05-29T10:43:30;100524.75;;;25.59;42.57
58769;BME280;44536;47.474;19.056;2023-05-29T10:47:18;100523.56;;;24.41;45.42
58769;BME280;44536;47.474;19.056;2023-05-29T10:50:01;100521.87;;;24.47;46.20
58769;BME280;44536;47.474;19.056;2023-05-29T10:53:06;100521.84;;;23.99;49.10
58769;BME280;44536;47.474;19.056;2023-05-29T10:56:08;100512.66;;;23.87;51.11
58769;BME280;44536;47.474;19.056;2023-05-29T10:59:16;100513.09;;;23.63;49.53
58769;BME280;44536;47.474;19.056;2023-05-29T11:02:19;100515.75;;;23.07;52.42
58769;BME280;44536;47.474;19.056;2023-05-29T11:05:24;100517.91;;;23.39;52.26
58769;BME280;44536;47.474;19.056;2023-05-29T11:08:46;100521.81;;;23.58;50.43
58769;BME280;44536;47.474;19.056;2023-05-29T11:11:58;100518.78;;;22.97;52.38
58769;BME280;44536;47.474;19.056;2023-05-29T11:15:11;100517.22;;;22.88;52.09
58769;BME280;44536;47.474;19.056;2023-05-29T11:18:15;100519.75;;;23.11;51.67
58769;BME280;44536;47.474;19.056;2023-05-29T11:22:09;100514.13;;;22.91;51.42
58769;BME280;44536;47.474;19.056;2023-05-29T11:24:44;100516.13;;;23.04;49.83
58769;BME280;44536;47.474;19.056;2023-05-29T11:27:47;100511.97;;;22.65;51.22
58769;BME280;44536;47.474;19.056;2023-05-29T11:30:49;100509.50;;;22.49;53.22
58769;BME280;44536;47.474;19.056;2023-05-29T11:33:52;100517.78;;;22.62;52.71
58769;BME280;44536;47.474;19.056;2023-05-29T11:36:57;100511.22;;;22.71;51.06
58769;BME280;44536;47.474;19.056;2023-05-29T11:39:59;100513.69;;;23.09;51.54
58769;BME280;44536;47.474;19.056;2023-05-29T11:43:02;100506.66;;;23.36;50.24
58769;BME280;44536;47.474;19.056;2023-05-29T11:49:36;100492.47;;;23.96;49.43
58769;BME280;44536;47.474;19.056;2023-05-29T11:52:45;100489.53;;;24.26;50.42
58769;BME280;44536;47.474;19.056;2023-05-29T11:55:48;100481.50;;;24.65;49.27
58769;BME280;44536;47.474;19.056;2023-05-29T11:58:50;100474.87;;;25.40;45.79
58769;BME280;44536;47.474;19.056;2023-05-29T12:01:53;100475.03;;;25.79;43.22
58769;BME280;44536;47.474;19.056;2023-05-29T12:05:05;100456.47;;;25.69;42.27
58769;BME280;44536;47.474;19.056;2023-05-29T12:08:09;100455.22;;;25.58;42.93
58769;BME280;44536;47.474;19.056;2023-05-29T12:11:11;100454.03;;;27.13;40.42
58769;BME280;44536;47.474;19.056;2023-05-29T12:14:13;100449.91;;;28.57;37.66
58769;BME280;44536;47.474;19.056;2023-05-29T12:17:15;100445.72;;;33.32;28.68
58769;BME280;44536;47.474;19.056;2023-05-29T12:20:18;100445.12;;;36.41;25.13
58769;BME280;44536;47.474;19.056;2023-05-29T12:23:21;100437.50;;;36.67;25.17
58769;BME280;44536;47.474;19.056;2023-05-29T12:26:24;100431.88;;;34.21;27.15
58769;BME280;44536;47.474;19.056;2023-05-29T12:29:30;100440.59;;;39.13;21.71
58769;BME280;44536;47.474;19.056;2023-05-29T12:32:38;100430.34;;;43.85;16.40
58769;BME280;44536;47.474;19.056;2023-05-29T12:35:41;100431.84;;;42.72;17.02
58769;BME280;44536;47.474;19.056;2023-05-29T12:38:49;100420.84;;;42.41;16.68
58769;BME280;44536;47.474;19.056;2023-05-29T12:41:53;100416.41;;;38.67;19.74
58769;BME280;44536;47.474;19.056;2023-05-29T12:44:56;100414.13;;;33.34;27.48
58769;BME280;44536;47.474;19.056;2023-05-29T12:48:07;100410.91;;;32.73;27.43
58769;BME280;44536;47.474;19.056;2023-05-29T12:51:09;100400.44;;;30.50;29.78
58769;BME280;44536;47.474;19.056;2023-05-29T12:54:12;100405.94;;;29.82;31.65
58769;BME280;44536;47.474;19.056;2023-05-29T12:57:15;100410.25;;;28.96;31.28
58769;BME280;44536;47.474;19.056;2023-05-29T13:00:17;100412.91;;;27.64;33.25
58769;BME280;44536;47.474;19.056;2023-05-29T13:03:20;100411.38;;;28.05;33.60
58769;BME280;44536;47.474;19.056;2023-05-29T13:06:23;100412.28;;;28.47;32.93
58769;BME280;44536;47.474;19.056;2023-05-29T13:09:25;100407.91;;;28.99;32.98
58769;BME280;44536;47.474;19.056;2023-05-29T13:12:27;100401.28;;;28.65;32.14
58769;BME280;44536;47.474;19.056;2023-05-29T13:15:29;100410.78;;;27.85;32.93
58769;BME280;44536;47.474;19.056;2023-05-29T13:18:33;100409.13;;;28.32;33.10
58769;BME280;44536;47.474;19.056;2023-05-29T13:21:35;100403.50;;;28.45;32.54
58769;BME280;44536;47.474;19.056;2023-05-29T13:24:37;100395.28;;;28.87;32.57
58769;BME280;44536;47.474;19.056;2023-05-29T13:27:40;100392.22;;;29.18;32.11
58769;BME280;44536;47.474;19.056;2023-05-29T13:30:43;100402.19;;;29.13;32.58
58769;BME280;44536;47.474;19.056;2023-05-29T13:33:45;100394.72;;;28.96;33.29
58769;BME280;44536;47.474;19.056;2023-05-29T13:36:48;100392.47;;;28.93;32.88
58769;BME280;44536;47.474;19.056;2023-05-29T13:39:50;100378.69;;;28.35;34.98
58769;BME280;44536;47.474;19.056;2023-05-29T13:42:52;100381.66;;;28.87;34.74
58769;BME280;44536;47.474;19.056;2023-05-29T13:45:55;100379.69;;;28.76;34.09
58769;BME280;44536;47.474;19.056;2023-05-29T13:48:58;100388.06;;;29.04;33.48
58769;BME280;44536;47.474;19.056;2023-05-29T13:52:00;100383.84;;;28.78;33.27
58769;BME280;44536;47.474;19.056;2023-05-29T13:55:02;100380.56;;;28.34;34.27
58769;BME280;44536;47.474;19.056;2023-05-29T13:58:10;100376.78;;;28.36;35.27
58769;BME280;44536;47.474;19.056;2023-05-29T14:01:12;100383.75;;;27.83;37.39
58769;BME280;44536;47.474;19.056;2023-05-29T14:04:17;100379.75;;;27.86;36.86
58769;BME280;44536;47.474;19.056;2023-05-29T14:07:19;100381.66;;;27.67;36.80
58769;BME280;44536;47.474;19.056;2023-05-29T14:10:21;100381.19;;;27.70;36.44
58769;BME280;44536;47.474;19.056;2023-05-29T14:13:23;100378.78;;;27.44;38.12
58769;BME280;44536;47.474;19.056;2023-05-29T14:16:26;100370.72;;;26.87;37.89
58769;BME280;44536;47.474;19.056;2023-05-29T14:19:28;100360.84;;;26.43;38.50
58769;BME280;44536;47.474;19.056;2023-05-29T14:22:31;100370.56;;;27.25;37.65
58769;BME280;44536;47.474;19.056;2023-05-29T14:25:33;100371.34;;;27.32;36.60
58769;BME280;44536;47.474;19.056;2023-05-29T14:28:36;100369.16;;;27.96;36.71
58769;BME280;44536;47.474;19.056;2023-05-29T14:31:39;100372.03;;;27.83;36.71
58769;BME280;44536;47.474;19.056;2023-05-29T14:34:42;100375.06;;;27.93;36.64
58769;BME280;44536;47.474;19.056;2023-05-29T14:37:44;100374.44;;;27.91;37.05
58769;BME280;44536;47.474;19.056;2023-05-29T14:40:46;100371.12;;;27.71;36.91
58769;BME280;44536;47.474;19.056;2023-05-29T14:44:08;100367.09;;;26.68;37.49
58769;BME280;44536;47.474;19.056;2023-05-29T14:47:10;100365.59;;;26.73;37.92
58769;BME280;44536;47.474;19.056;2023-05-29T14:50:13;100365.38;;;26.49;37.96
58769;BME280;44536;47.474;19.056;2023-05-29T14:53:17;100361.31;;;26.58;37.24
58769;BME280;44536;47.474;19.056;2023-05-29T14:56:19;100356.50;;;26.35;40.50
58769;BME280;44536;47.474;19.056;2023-05-29T14:59:21;100361.16;;;25.84;39.16
58769;BME280;44536;47.474;19.056;2023-05-29T15:02:23;100363.28;;;25.62;39.76
58769;BME280;44536;47.474;19.056;2023-05-29T15:05:26;100358.91;;;25.67;40.28
58769;BME280;44536;47.474;19.056;2023-05-29T15:08:29;100361.38;;;25.82;41.39
58769;BME280;44536;47.474;19.056;2023-05-29T15:11:36;100358.75;;;26.00;41.26
58769;BME280;44536;47.474;19.056;2023-05-29T15:14:38;100352.72;;;25.98;40.70
58769;BME280;44536;47.474;19.056;2023-05-29T15:17:40;100354.69;;;26.16;41.27
58769;BME280;44536;47.474;19.056;2023-05-29T15:20:42;100352.09;;;26.34;42.14
58769;BME280;44536;47.474;19.056;2023-05-29T15:23:44;100358.78;;;26.38;40.63
58769;BME280;44536;47.474;19.056;2023-05-29T15:26:46;100360.00;;;26.43;40.57
58769;BME280;44536;47.474;19.056;2023-05-29T15:29:49;100362.22;;;26.14;40.26
58769;BME280;44536;47.474;19.056;2023-05-29T15:32:51;100362.09;;;26.02;40.79
58769;BME280;44536;47.474;19.056;2023-05-29T15:35:53;100361.19;;;26.15;40.30
58769;BME280;44536;47.474;19.056;2023-05-29T15:38:55;100358.59;;;25.95;40.12
58769;BME280;44536;47.474;19.056;2023-05-29T15:41:58;100360.16;;;25.71;41.37
58769;BME280;44536;47.474;19.056;2023-05-29T15:45:01;100352.87;;;25.52;41.29
58769;BME280;44536;47.474;19.056;2023-05-29T15:48:04;100350.22;;;25.46;43.05
58769;BME280;44536;47.474;19.056;2023-05-29T15:51:07;100353.38;;;25.36;43.81
58769;BME280;44536;47.474;19.056;2023-05-29T15:54:09;100346.34;;;25.02;43.98
58769;BME280;44536;47.474;19.056;2023-05-29T15:57:12;100338.63;;;24.92;43.94